ELY289 LLBG-LIPZ
Flight info
| Callsign | ELY289 |
|---|---|
| Flight time | N/A |
| Altitude | 36000 |
| Route | SUVAS L53 ANIDE DCT RIPLI/N0452F380 DCT TALAS DCT ENFAR DCT POD DCT INTIT DCT VELIT DCT IPKIS DCT LABIN Z122 BASOG |
| Aircraft | B738/M-SDE2E3FGHIRWXY/LB1 |
Departure
| Time | 2026-04-30 14:28 |
|---|---|
| Airport | Ben Gurion International Airport (LLBG) |
Arrival
| Time | N/A |
|---|---|
| Airport | Venice Marco Polo Airport (LIPZ) |
| Time | Latitude | Longitude | Altitude | Speed | Heading |
|---|---|---|---|---|---|
| 2026-04-30 13:39 | 32.00595 | 34.87352 | 116 ft | 0 kts | 182° |
| 2026-04-30 14:18 | 32.00596 | 34.87352 | 119 ft | 2 kts | 182° |
| 2026-04-30 14:19 | 32.00634 | 34.87324 | 114 ft | 4 kts | 129° |
| 2026-04-30 14:19 | 32.00648 | 34.87307 | 114 ft | 4 kts | 150° |
| 2026-04-30 14:19 | 32.00672 | 34.87299 | 115 ft | 4 kts | 181° |
| 2026-04-30 14:20 | 32.00696 | 34.87300 | 115 ft | 4 kts | 181° |
| 2026-04-30 14:20 | 32.00721 | 34.87296 | 116 ft | 4 kts | 147° |
| 2026-04-30 14:20 | 32.00736 | 34.87245 | 115 ft | 3 kts | 78° |
| 2026-04-30 14:21 | 32.00730 | 34.87214 | 115 ft | 3 kts | 77° |
| 2026-04-30 14:21 | 32.00729 | 34.87210 | 117 ft | 1 kts | 77° |
| 2026-04-30 14:22 | 32.00729 | 34.87212 | 117 ft | 1 kts | 77° |
| 2026-04-30 14:23 | 32.00783 | 34.87330 | 118 ft | 13 kts | 32° |
| 2026-04-30 14:23 | 32.00773 | 34.87503 | 118 ft | 13 kts | 121° |
| 2026-04-30 14:24 | 32.00660 | 34.87720 | 117 ft | 21 kts | 121° |
| 2026-04-30 14:24 | 32.00590 | 34.87854 | 118 ft | 14 kts | 120° |
| 2026-04-30 14:25 | 32.00751 | 34.88037 | 115 ft | 27 kts | 32° |
| 2026-04-30 14:25 | 32.01051 | 34.88253 | 117 ft | 24 kts | 30° |
| 2026-04-30 14:26 | 32.01311 | 34.88461 | 118 ft | 22 kts | 43° |
| 2026-04-30 14:26 | 32.01407 | 34.88596 | 118 ft | 21 kts | 56° |
| 2026-04-30 14:26 | 32.01506 | 34.88910 | 117 ft | 20 kts | 79° |
| 2026-04-30 14:27 | 32.01530 | 34.89066 | 119 ft | 16 kts | 80° |
| 2026-04-30 14:27 | 32.01565 | 34.89155 | 117 ft | 12 kts | 29° |
| 2026-04-30 14:27 | 32.01646 | 34.89151 | 117 ft | 12 kts | 349° |
| 2026-04-30 14:28 | 32.01732 | 34.88999 | 117 ft | 35 kts | 260° |
| 2026-04-30 14:28 | 32.01645 | 34.88427 | 120 ft | 105 kts | 260° |
| 2026-04-30 14:28 | 32.01480 | 34.87347 | 161 ft | 157 kts | 264° |
| 2026-04-30 14:28 | 32.01305 | 34.86041 | 800 ft | 164 kts | 264° |
| 2026-04-30 14:29 | 32.00795 | 34.83391 | 2293 ft | 168 kts | 261° |
| 2026-04-30 14:29 | 32.00328 | 34.81182 | 3465 ft | 170 kts | 257° |
| 2026-04-30 14:30 | 31.99182 | 34.75564 | 4431 ft | 246 kts | 264° |
| 2026-04-30 14:31 | 32.00193 | 34.71426 | 5429 ft | 275 kts | 289° |
| 2026-04-30 14:31 | 32.01553 | 34.67142 | 6928 ft | 282 kts | 287° |
| 2026-04-30 14:31 | 32.02235 | 34.64961 | 7603 ft | 284 kts | 287° |
| 2026-04-30 14:32 | 32.02887 | 34.60434 | 7992 ft | 285 kts | 269° |
| 2026-04-30 14:32 | 32.02971 | 34.58101 | 8004 ft | 284 kts | 270° |
| 2026-04-30 14:32 | 32.03077 | 34.55785 | 7998 ft | 282 kts | 270° |
| 2026-04-30 14:33 | 32.03191 | 34.53518 | 8001 ft | 280 kts | 271° |
| 2026-04-30 14:33 | 32.03431 | 34.48909 | 8502 ft | 287 kts | 271° |
| 2026-04-30 14:33 | 32.03554 | 34.46562 | 9349 ft | 285 kts | 271° |
| 2026-04-30 14:34 | 32.03678 | 34.44214 | 10097 ft | 287 kts | 271° |
| 2026-04-30 14:34 | 32.03812 | 34.41820 | 10504 ft | 303 kts | 272° |
| 2026-04-30 14:34 | 32.03959 | 34.39249 | 10675 ft | 325 kts | 271° |
| 2026-04-30 14:34 | 32.04062 | 34.37450 | 10772 ft | 339 kts | 272° |
| 2026-04-30 14:35 | 32.04399 | 34.31608 | 11294 ft | 369 kts | 272° |
| 2026-04-30 14:35 | 32.04629 | 34.27570 | 12058 ft | 375 kts | 272° |
| 2026-04-30 14:35 | 32.04818 | 34.24485 | 12665 ft | 378 kts | 275° |
| 2026-04-30 14:36 | 32.05561 | 34.21487 | 13250 ft | 387 kts | 296° |
| 2026-04-30 14:36 | 32.06944 | 34.18751 | 13944 ft | 388 kts | 300° |
| 2026-04-30 14:36 | 32.08364 | 34.16033 | 14544 ft | 391 kts | 300° |
| 2026-04-30 14:36 | 32.09789 | 34.13288 | 15172 ft | 393 kts | 299° |
| 2026-04-30 14:37 | 32.11215 | 34.10514 | 15804 ft | 396 kts | 299° |
| 2026-04-30 14:37 | 32.12620 | 34.07755 | 16426 ft | 398 kts | 299° |
| 2026-04-30 14:37 | 32.14049 | 34.04937 | 17035 ft | 400 kts | 298° |
| 2026-04-30 14:37 | 32.15482 | 34.02107 | 17660 ft | 403 kts | 298° |
| 2026-04-30 14:38 | 32.16923 | 33.99252 | 18256 ft | 405 kts | 298° |
| 2026-04-30 14:38 | 32.18267 | 33.96322 | 18781 ft | 406 kts | 295° |
| 2026-04-30 14:38 | 32.19515 | 33.93331 | 19381 ft | 406 kts | 293° |
| 2026-04-30 14:38 | 32.20715 | 33.90358 | 19973 ft | 406 kts | 293° |
| 2026-04-30 14:39 | 32.21924 | 33.87342 | 20536 ft | 407 kts | 293° |
| 2026-04-30 14:39 | 32.23141 | 33.84321 | 21079 ft | 408 kts | 294° |
| 2026-04-30 14:39 | 32.24370 | 33.81294 | 21589 ft | 409 kts | 294° |
| 2026-04-30 14:40 | 32.26435 | 33.76244 | 22445 ft | 411 kts | 294° |
| 2026-04-30 14:40 | 32.27692 | 33.73183 | 22932 ft | 413 kts | 294° |
| 2026-04-30 14:40 | 32.28951 | 33.70119 | 23409 ft | 414 kts | 294° |
| 2026-04-30 14:40 | 32.30212 | 33.67051 | 23830 ft | 416 kts | 294° |
| 2026-04-30 14:41 | 32.31476 | 33.63975 | 24223 ft | 416 kts | 294° |
| 2026-04-30 14:41 | 32.32745 | 33.60885 | 24610 ft | 417 kts | 294° |
| 2026-04-30 14:41 | 32.34013 | 33.57792 | 24981 ft | 419 kts | 294° |
| 2026-04-30 14:41 | 32.35282 | 33.54694 | 25324 ft | 421 kts | 294° |
| 2026-04-30 14:42 | 32.36561 | 33.51570 | 25642 ft | 423 kts | 294° |
| 2026-04-30 14:42 | 32.37843 | 33.48433 | 25995 ft | 424 kts | 294° |
| 2026-04-30 14:42 | 32.39131 | 33.45283 | 26353 ft | 425 kts | 294° |
| 2026-04-30 14:42 | 32.40417 | 33.42131 | 26688 ft | 426 kts | 294° |
| 2026-04-30 14:43 | 32.41707 | 33.38970 | 27003 ft | 427 kts | 294° |
| 2026-04-30 14:43 | 32.42985 | 33.35833 | 27311 ft | 429 kts | 294° |
| 2026-04-30 14:43 | 32.44287 | 33.32635 | 27608 ft | 430 kts | 294° |
| 2026-04-30 14:43 | 32.45589 | 33.29434 | 27907 ft | 431 kts | 294° |
| 2026-04-30 14:44 | 32.46877 | 33.26263 | 28253 ft | 431 kts | 294° |
| 2026-04-30 14:44 | 32.48170 | 33.23078 | 28760 ft | 427 kts | 294° |
| 2026-04-30 14:44 | 32.49452 | 33.19919 | 29281 ft | 423 kts | 294° |
| 2026-04-30 14:44 | 32.50722 | 33.16785 | 29776 ft | 421 kts | 294° |
| 2026-04-30 14:45 | 32.51988 | 33.13658 | 30186 ft | 419 kts | 295° |
| 2026-04-30 14:45 | 32.53249 | 33.10540 | 30482 ft | 419 kts | 295° |
| 2026-04-30 14:45 | 32.54509 | 33.07423 | 30792 ft | 419 kts | 295° |
| 2026-04-30 14:45 | 32.55766 | 33.04311 | 31132 ft | 418 kts | 295° |
| 2026-04-30 14:46 | 32.57017 | 33.01208 | 31477 ft | 417 kts | 294° |
| 2026-04-30 14:46 | 32.58265 | 32.98112 | 31794 ft | 416 kts | 294° |
| 2026-04-30 14:46 | 32.59511 | 32.95019 | 32107 ft | 415 kts | 294° |
| 2026-04-30 14:46 | 32.60739 | 32.91966 | 32422 ft | 414 kts | 294° |
| 2026-04-30 14:47 | 32.61981 | 32.88878 | 32754 ft | 413 kts | 294° |
| 2026-04-30 14:47 | 32.63215 | 32.85804 | 33103 ft | 412 kts | 295° |
| 2026-04-30 14:47 | 32.64444 | 32.82743 | 33437 ft | 410 kts | 295° |
| 2026-04-30 14:47 | 32.65669 | 32.79687 | 33735 ft | 410 kts | 295° |
| 2026-04-30 14:48 | 32.66892 | 32.76634 | 34020 ft | 409 kts | 295° |
| 2026-04-30 14:48 | 32.68113 | 32.73584 | 34273 ft | 409 kts | 294° |
| 2026-04-30 14:48 | 32.69328 | 32.70544 | 34513 ft | 408 kts | 294° |
| 2026-04-30 14:48 | 32.70544 | 32.67500 | 34733 ft | 408 kts | 294° |
| 2026-04-30 14:49 | 32.71761 | 32.64450 | 34979 ft | 407 kts | 294° |
| 2026-04-30 14:49 | 32.72973 | 32.61412 | 35222 ft | 407 kts | 294° |
| 2026-04-30 14:49 | 32.74170 | 32.58409 | 35486 ft | 405 kts | 294° |
| 2026-04-30 14:49 | 32.75387 | 32.55351 | 35724 ft | 405 kts | 294° |
| 2026-04-30 14:50 | 32.77781 | 32.49331 | 35994 ft | 407 kts | 294° |
| 2026-04-30 14:50 | 32.78992 | 32.46281 | 35998 ft | 408 kts | 294° |
| 2026-04-30 14:51 | 32.82878 | 32.37368 | 36005 ft | 404 kts | 302° |
| 2026-04-30 14:52 | 32.87686 | 32.29170 | 36011 ft | 401 kts | 302° |
| 2026-04-30 14:52 | 32.92448 | 32.20980 | 36011 ft | 401 kts | 302° |
| 2026-04-30 14:53 | 32.97200 | 32.12753 | 36021 ft | 403 kts | 302° |
| 2026-04-30 14:54 | 33.03564 | 32.01699 | 36018 ft | 408 kts | 302° |
| 2026-04-30 14:55 | 33.08384 | 31.93306 | 36011 ft | 410 kts | 302° |